createdAt,value
2024-02-14T00:02:27.039Z,4.93
2024-02-14T00:05:30.117Z,4.85
2024-02-14T00:08:32.707Z,5.30
2024-02-14T00:11:35.257Z,5.55
2024-02-14T00:14:39.095Z,5.10
2024-02-14T00:17:42.192Z,5.10
2024-02-14T00:20:45.030Z,5.22
2024-02-14T00:23:48.205Z,5.00
2024-02-14T00:26:50.732Z,5.60
2024-02-14T00:29:55.542Z,5.38
2024-02-14T00:32:58.959Z,5.57
2024-02-14T00:36:01.622Z,4.85
2024-02-14T00:39:04.500Z,5.93
2024-02-14T00:42:07.242Z,6.65
2024-02-14T00:45:11.558Z,5.90
2024-02-14T00:48:14.290Z,5.78
2024-02-14T00:51:16.928Z,6.28
2024-02-14T00:54:19.498Z,7.50
2024-02-14T00:57:22.025Z,6.32
2024-02-14T01:00:26.770Z,6.88
2024-02-14T01:03:29.331Z,6.82
2024-02-14T01:06:32.370Z,6.22
2024-02-14T01:09:35.407Z,7.45
2024-02-14T01:12:37.998Z,7.28
2024-02-14T01:15:42.782Z,6.70
2024-02-14T01:18:45.523Z,6.00
2024-02-14T01:21:49.348Z,6.90
2024-02-14T01:24:51.894Z,6.85
2024-02-14T01:27:54.563Z,6.93
2024-02-14T01:30:58.368Z,7.30
2024-02-14T01:34:03.125Z,7.25
2024-02-14T01:37:05.865Z,7.40
2024-02-14T01:40:09.369Z,7.78
2024-02-14T01:43:12.304Z,7.40
2024-02-14T01:46:16.656Z,7.78
2024-02-14T01:49:19.434Z,8.35
2024-02-14T01:52:23.311Z,7.93
2024-02-14T01:55:27.684Z,7.85
2024-02-14T01:58:31.683Z,8.27
2024-02-14T02:01:35.728Z,7.47
2024-02-14T02:04:38.388Z,8.13
2024-02-14T02:07:43.970Z,7.82
2024-02-14T02:10:46.470Z,7.55
2024-02-14T02:13:48.941Z,8.43
2024-02-14T02:16:53.366Z,8.30
2024-02-14T02:19:56.286Z,8.45
2024-02-14T02:23:00.584Z,7.93
2024-02-14T02:26:03.364Z,8.60
2024-02-14T02:29:07.060Z,9.00
2024-02-14T02:32:10.851Z,8.85
2024-02-14T02:35:14.003Z,9.05
2024-02-14T02:38:18.099Z,9.48
2024-02-14T02:41:20.627Z,10.18
2024-02-14T02:44:23.133Z,8.65
2024-02-14T02:47:25.768Z,8.90
2024-02-14T02:50:28.675Z,9.27
2024-02-14T02:53:32.588Z,9.20
2024-02-14T02:56:35.299Z,9.52
2024-02-14T02:59:38.314Z,9.80
2024-02-14T03:02:46.395Z,10.48
2024-02-14T03:05:50.178Z,10.75
2024-02-14T03:08:56.465Z,9.63
2024-02-14T03:11:59.109Z,10.90
2024-02-14T03:15:01.745Z,9.73
2024-02-14T03:18:06.912Z,10.20
2024-02-14T03:21:09.535Z,9.05
2024-02-14T03:24:13.417Z,9.80
2024-02-14T03:27:18.098Z,9.32
2024-02-14T03:30:21.541Z,9.70
2024-02-14T03:33:24.340Z,9.23
2024-02-14T03:36:29.434Z,9.13
2024-02-14T03:39:33.259Z,9.07
2024-02-14T03:42:36.180Z,8.82
2024-02-14T03:45:39.262Z,9.63
2024-02-14T03:48:42.997Z,9.43
2024-02-14T03:51:45.641Z,9.07
2024-02-14T03:54:49.491Z,9.68
2024-02-14T03:57:52.112Z,10.02
2024-02-14T04:00:55.012Z,10.07
2024-02-14T04:03:57.575Z,9.10
2024-02-14T04:07:02.209Z,10.15
2024-02-14T04:10:07.090Z,8.35
2024-02-14T04:13:10.933Z,9.70
2024-02-14T04:16:13.427Z,8.50
2024-02-14T04:19:18.568Z,9.85
2024-02-14T04:22:22.214Z,8.70
2024-02-14T04:25:26.281Z,8.68
2024-02-14T04:28:29.358Z,8.25
2024-02-14T04:31:32.889Z,8.57
2024-02-14T04:34:39.213Z,8.30
2024-02-14T04:37:44.327Z,8.15
2024-02-14T04:40:49.220Z,8.38
2024-02-14T04:43:51.747Z,7.82
2024-02-14T04:46:54.353Z,8.93
2024-02-14T04:49:56.923Z,8.98
2024-02-14T04:52:59.469Z,7.78
2024-02-14T04:56:03.966Z,7.43
2024-02-14T04:59:06.697Z,7.18
2024-02-14T05:02:09.209Z,7.28
2024-02-14T05:05:11.852Z,7.35
2024-02-14T05:08:14.415Z,6.68
2024-02-14T05:11:18.258Z,7.47
2024-02-14T05:14:21.778Z,7.45
2024-02-14T05:17:24.668Z,7.20
2024-02-14T05:20:28.072Z,7.80
2024-02-14T05:23:30.630Z,7.18
2024-02-14T05:26:35.231Z,7.13
2024-02-14T05:29:37.857Z,6.93
2024-02-14T05:32:40.940Z,7.35
2024-02-14T05:35:43.643Z,6.65
2024-02-14T05:38:46.472Z,7.50
2024-02-14T05:41:51.143Z,7.50
2024-02-14T05:44:53.940Z,7.63
2024-02-14T05:47:56.591Z,7.25
2024-02-14T05:50:59.968Z,7.20
2024-02-14T05:54:02.506Z,6.88
2024-02-14T05:57:08.269Z,7.38
2024-02-14T06:00:13.541Z,7.70
2024-02-14T06:03:16.638Z,6.90
2024-02-14T06:06:19.441Z,6.47
2024-02-14T06:09:22.028Z,7.43
2024-02-14T06:12:25.855Z,7.28
2024-02-14T06:15:28.416Z,6.88
2024-02-14T06:18:31.029Z,7.47
2024-02-14T06:21:34.246Z,6.45
2024-02-14T06:24:36.776Z,7.43
2024-02-14T06:27:40.589Z,6.90
2024-02-14T06:30:43.793Z,7.10
2024-02-14T06:33:46.540Z,6.97
2024-02-14T06:36:49.359Z,8.02
2024-02-14T06:39:51.902Z,6.85
2024-02-14T06:42:56.184Z,8.10
2024-02-14T06:45:58.764Z,7.65
2024-02-14T06:49:01.790Z,7.40
2024-02-14T06:52:04.873Z,7.70
2024-02-14T06:55:08.392Z,7.45
2024-02-14T06:58:12.259Z,7.13
2024-02-14T07:01:16.438Z,7.32
2024-02-14T07:04:26.394Z,8.18
2024-02-14T07:07:28.943Z,7.85
2024-02-14T07:10:31.455Z,8.07
2024-02-14T07:13:35.663Z,8.23
2024-02-14T07:16:38.401Z,7.72
2024-02-14T07:19:41.583Z,8.25
2024-02-14T07:22:46.966Z,7.55
2024-02-14T07:25:49.632Z,8.00
2024-02-14T07:28:53.759Z,7.80
2024-02-14T07:31:56.715Z,7.90
2024-02-14T07:34:59.244Z,8.70
2024-02-14T07:38:01.760Z,7.18
2024-02-14T07:41:04.274Z,7.85
2024-02-14T07:44:08.192Z,7.65
2024-02-14T07:47:10.700Z,8.07
2024-02-14T07:50:13.294Z,7.80
2024-02-14T07:53:16.953Z,7.15
2024-02-14T07:56:20.267Z,7.63
2024-02-14T07:59:24.078Z,7.45
2024-02-14T08:02:28.735Z,7.47
2024-02-14T08:05:31.438Z,7.03
2024-02-14T08:08:34.142Z,7.32
2024-02-14T08:11:36.798Z,6.65
2024-02-14T08:14:40.745Z,7.80
2024-02-14T08:17:46.659Z,8.13
2024-02-14T08:20:50.271Z,7.18
2024-02-14T08:23:52.796Z,7.30
2024-02-14T08:26:55.937Z,8.05
2024-02-14T08:29:59.899Z,7.25
2024-02-14T08:33:02.677Z,7.40
2024-02-14T08:36:05.761Z,8.18
2024-02-14T08:39:08.369Z,6.93
2024-02-14T08:42:10.956Z,7.65
2024-02-14T08:45:15.162Z,8.45
2024-02-14T08:48:17.713Z,7.93
2024-02-14T08:51:21.515Z,8.73
2024-02-14T08:54:24.534Z,8.35
2024-02-14T08:57:27.452Z,8.32
2024-02-14T09:00:32.031Z,7.43
2024-02-14T09:03:34.862Z,7.50
2024-02-14T09:06:40.360Z,8.13
2024-02-14T09:09:42.948Z,8.25
2024-02-14T09:12:45.681Z,7.60
2024-02-14T09:15:51.339Z,8.35
2024-02-14T09:18:54.034Z,8.38
2024-02-14T09:21:57.401Z,7.75
2024-02-14T09:25:00.034Z,9.13
2024-02-14T09:28:02.548Z,8.35
2024-02-14T09:31:06.472Z,8.18
2024-02-14T09:34:09.338Z,10.88
2024-02-14T09:37:11.878Z,7.82
2024-02-14T09:40:15.519Z,27.40
2024-02-14T09:43:27.292Z,12.05
2024-02-14T09:46:31.845Z,8.48
2024-02-14T09:49:36.854Z,7.53
2024-02-14T09:52:40.887Z,9.73
2024-02-14T09:55:44.114Z,9.88
2024-02-14T09:58:50.823Z,9.38
2024-02-14T10:01:54.732Z,6.55
2024-02-14T10:04:57.246Z,7.32
2024-02-14T10:07:59.781Z,6.07
2024-02-14T10:11:05.392Z,6.13
2024-02-14T10:14:10.333Z,5.25
2024-02-14T10:17:20.490Z,5.43
2024-02-14T10:20:23.791Z,11.45
2024-02-14T10:23:28.838Z,6.70
2024-02-14T10:26:32.239Z,7.72
2024-02-14T10:29:35.385Z,5.05
2024-02-14T10:32:39.678Z,10.75
2024-02-14T10:35:43.628Z,5.35
2024-02-14T10:38:49.554Z,5.25
2024-02-14T10:41:52.176Z,4.63
2024-02-14T10:44:54.781Z,8.77
2024-02-14T10:48:01.917Z,4.70
2024-02-14T10:51:07.900Z,4.03
2024-02-14T10:54:13.051Z,4.10
2024-02-14T10:57:18.743Z,6.35
2024-02-14T11:00:21.780Z,4.47
2024-02-14T11:03:27.219Z,3.97
2024-02-14T11:06:31.047Z,4.47
2024-02-14T11:09:36.178Z,4.60
2024-02-14T11:12:40.470Z,4.80
2024-02-14T11:15:47.816Z,4.30
2024-02-14T11:18:52.008Z,4.38
2024-02-14T11:21:54.561Z,4.90
2024-02-14T11:24:57.268Z,4.03
2024-02-14T11:28:00.382Z,4.45
2024-02-14T11:31:05.341Z,4.43
2024-02-14T11:34:09.962Z,4.65
2024-02-14T11:37:12.788Z,3.95
2024-02-14T11:40:15.328Z,4.18
2024-02-14T11:43:20.982Z,4.15
2024-02-14T11:46:23.754Z,4.00
2024-02-14T11:49:27.790Z,4.30
2024-02-14T11:52:31.129Z,5.00
2024-02-14T11:55:34.034Z,4.85
2024-02-14T11:58:36.952Z,4.50
2024-02-14T12:01:40.686Z,3.88
2024-02-14T12:04:45.909Z,4.43
2024-02-14T12:07:49.274Z,3.97
2024-02-14T12:10:51.931Z,4.65
2024-02-14T12:13:54.521Z,4.18
2024-02-14T12:16:58.773Z,4.70
2024-02-14T12:20:12.309Z,4.10
2024-02-14T12:23:18.720Z,4.47
2024-02-14T12:26:21.383Z,4.82
2024-02-14T12:29:25.609Z,3.88
2024-02-14T12:32:28.196Z,4.78
2024-02-14T12:35:32.052Z,4.15
2024-02-14T12:38:35.534Z,4.22
2024-02-14T12:41:40.999Z,4.15
2024-02-14T12:44:43.674Z,4.35
2024-02-14T12:47:46.271Z,4.18
2024-02-14T12:50:51.177Z,4.00
2024-02-14T12:53:53.782Z,4.28
2024-02-14T12:56:56.357Z,3.90
2024-02-14T12:59:58.938Z,4.47
2024-02-14T13:03:02.207Z,4.28
2024-02-14T13:06:07.010Z,3.97
2024-02-14T13:09:09.909Z,3.70
2024-02-14T13:12:12.560Z,4.45
2024-02-14T13:15:15.180Z,3.83
2024-02-14T13:18:19.111Z,4.38
2024-02-14T13:21:23.202Z,4.18
2024-02-14T13:24:25.740Z,4.30
2024-02-14T13:27:28.452Z,4.20
2024-02-14T13:30:31.226Z,4.88
2024-02-14T13:33:33.908Z,4.18
2024-02-14T13:36:37.984Z,3.78
2024-02-14T13:39:40.543Z,4.20
2024-02-14T13:42:43.048Z,4.07
2024-02-14T13:45:48.122Z,3.80
2024-02-14T13:48:51.013Z,3.95
2024-02-14T13:51:54.920Z,4.30
2024-02-14T13:54:59.733Z,3.97
2024-02-14T13:58:02.844Z,3.85
2024-02-14T14:01:05.842Z,4.30
2024-02-14T14:04:08.775Z,4.00
2024-02-14T14:07:12.687Z,4.45
2024-02-14T14:10:15.229Z,4.35
2024-02-14T14:13:17.711Z,4.43
2024-02-14T14:16:22.751Z,4.05
2024-02-14T14:19:26.413Z,3.85
2024-02-14T14:22:30.912Z,4.03
2024-02-14T14:25:33.513Z,3.70
2024-02-14T14:28:36.090Z,4.05
2024-02-14T14:31:38.590Z,4.03
2024-02-14T14:34:41.245Z,3.92
2024-02-14T14:37:45.171Z,3.80
2024-02-14T14:40:48.754Z,3.67
2024-02-14T14:43:51.239Z,3.80
2024-02-14T14:46:53.766Z,3.92
2024-02-14T14:49:56.296Z,3.80
2024-02-14T14:53:00.415Z,3.55
2024-02-14T14:56:03.815Z,4.35
2024-02-14T14:59:07.207Z,4.10
2024-02-14T15:02:09.785Z,4.05
2024-02-14T15:05:13.997Z,4.03
2024-02-14T15:08:18.969Z,4.65
2024-02-14T15:11:22.001Z,6.35
2024-02-14T15:14:24.578Z,5.50
2024-02-14T15:17:29.485Z,5.28
2024-02-14T15:20:32.241Z,4.60
2024-02-14T15:23:36.090Z,4.30
2024-02-14T15:26:50.409Z,4.15
2024-02-14T15:30:10.435Z,4.13
2024-02-14T15:33:24.125Z,3.50
2024-02-14T15:36:26.862Z,3.53
2024-02-14T15:39:31.198Z,3.92
2024-02-14T15:42:33.806Z,3.90
2024-02-14T15:45:36.975Z,3.78
2024-02-14T15:48:39.805Z,4.07
2024-02-14T15:51:42.655Z,3.45
2024-02-14T15:54:46.480Z,3.75
2024-02-14T15:57:49.164Z,3.63
2024-02-14T16:00:51.662Z,3.90
2024-02-14T16:03:54.215Z,3.88
2024-02-14T16:06:56.909Z,3.47
2024-02-14T16:10:01.154Z,4.32
2024-02-14T16:13:03.936Z,4.15
2024-02-14T16:16:08.658Z,4.68
2024-02-14T16:19:11.580Z,4.18
2024-02-14T16:22:16.939Z,6.30
2024-02-14T16:25:22.149Z,9.50
2024-02-14T16:28:24.618Z,7.68
2024-02-14T16:31:27.078Z,7.35
2024-02-14T16:34:29.654Z,6.95
2024-02-14T16:37:32.238Z,7.70
2024-02-14T16:40:36.272Z,7.38
2024-02-14T16:43:38.990Z,7.10
2024-02-14T16:46:41.596Z,9.32
2024-02-14T16:49:44.219Z,9.20
2024-02-14T16:52:46.753Z,9.60
2024-02-14T16:55:50.531Z,10.30
2024-02-14T16:58:53.176Z,10.60
2024-02-14T17:01:55.654Z,10.63
2024-02-14T17:04:58.223Z,10.60
2024-02-14T17:08:00.821Z,10.63
2024-02-14T17:11:04.738Z,10.15
2024-02-14T17:14:09.951Z,11.32
2024-02-14T17:17:12.636Z,11.52
2024-02-14T17:20:15.483Z,11.57
2024-02-14T17:23:18.272Z,11.55
2024-02-14T17:26:22.554Z,11.02
2024-02-14T17:29:25.073Z,12.02
2024-02-14T17:32:36.088Z,12.50
2024-02-14T17:35:43.185Z,11.38
2024-02-14T17:38:45.812Z,11.77
2024-02-14T17:41:49.896Z,11.18
2024-02-14T17:44:52.499Z,11.10
2024-02-14T17:47:55.311Z,11.68
2024-02-14T17:50:57.868Z,11.32
2024-02-14T17:54:01.133Z,11.80
2024-02-14T17:57:05.404Z,10.60
2024-02-14T18:00:10.935Z,11.00
2024-02-14T18:03:13.632Z,11.05
2024-02-14T18:06:16.320Z,10.35
2024-02-14T18:09:19.094Z,11.07
2024-02-14T18:12:26.638Z,10.88
2024-02-14T18:15:29.159Z,12.13
2024-02-14T18:18:34.677Z,10.93
2024-02-14T18:21:37.547Z,11.00
2024-02-14T18:24:40.001Z,11.60
2024-02-14T18:27:43.872Z,11.98
2024-02-14T18:30:47.067Z,11.63
2024-02-14T18:33:49.785Z,10.70
2024-02-14T18:36:52.473Z,12.27
2024-02-14T18:39:58.109Z,11.35
2024-02-14T18:43:02.292Z,11.80
2024-02-14T18:46:05.783Z,11.90
2024-02-14T18:49:08.986Z,10.93
2024-02-14T18:52:11.542Z,10.90
2024-02-14T18:55:14.848Z,11.30
2024-02-14T18:58:18.802Z,11.40
2024-02-14T19:01:26.069Z,10.45
2024-02-14T19:04:28.730Z,10.95
2024-02-14T19:07:32.048Z,10.95
2024-02-14T19:10:34.651Z,11.20
2024-02-14T19:13:40.222Z,11.70
2024-02-14T19:16:42.970Z,11.70
2024-02-14T19:19:45.495Z,11.35
2024-02-14T19:22:48.213Z,11.27
2024-02-14T19:25:54.750Z,11.27
2024-02-14T19:28:58.591Z,11.07
2024-02-14T19:32:01.085Z,10.68
2024-02-14T19:35:04.255Z,11.13
2024-02-14T19:38:06.805Z,10.75
2024-02-14T19:41:09.804Z,11.77
2024-02-14T19:44:13.625Z,12.00
2024-02-14T19:47:17.256Z,10.65
2024-02-14T19:50:21.023Z,11.25
2024-02-14T19:53:23.751Z,10.38
2024-02-14T19:56:28.521Z,9.75
2024-02-14T19:59:32.459Z,11.25
2024-02-14T20:02:36.742Z,9.95
2024-02-14T20:05:40.631Z,9.90
2024-02-14T20:08:44.006Z,9.57
2024-02-14T20:11:46.596Z,9.68
2024-02-14T20:14:50.731Z,10.25
2024-02-14T20:17:54.104Z,10.40
2024-02-14T20:20:56.843Z,10.30
2024-02-14T20:23:59.624Z,10.63
2024-02-14T20:27:02.213Z,10.13
2024-02-14T20:30:10.140Z,10.60
2024-02-14T20:33:13.055Z,10.18
2024-02-14T20:36:15.608Z,9.88
2024-02-14T20:39:18.257Z,9.95
2024-02-14T20:42:21.861Z,9.43
2024-02-14T20:45:26.820Z,9.10
2024-02-14T20:48:30.011Z,8.80
2024-02-14T20:51:35.489Z,9.52
2024-02-14T20:54:38.056Z,8.35
2024-02-14T20:57:41.266Z,8.05
2024-02-14T21:00:45.241Z,7.93
2024-02-14T21:03:49.199Z,8.52
2024-02-14T21:06:52.982Z,8.23
2024-02-14T21:09:55.474Z,8.75
2024-02-14T21:12:58.186Z,8.07
2024-02-14T21:16:02.015Z,7.80
2024-02-14T21:19:06.119Z,7.53
2024-02-14T21:22:08.957Z,8.45
2024-02-14T21:25:12.701Z,8.07
2024-02-14T21:28:16.038Z,7.85
2024-02-14T21:31:21.967Z,8.27
2024-02-14T21:34:24.602Z,7.70
2024-02-14T21:37:27.261Z,7.93
2024-02-14T21:40:30.571Z,7.60
2024-02-14T21:43:33.069Z,7.78
2024-02-14T21:46:37.061Z,7.65
2024-02-14T21:49:39.882Z,8.63
2024-02-14T21:52:42.562Z,8.40
2024-02-14T21:55:45.129Z,7.60
2024-02-14T21:58:47.692Z,9.07
2024-02-14T22:01:52.199Z,8.07
2024-02-14T22:04:55.224Z,8.55
2024-02-14T22:07:58.344Z,8.35
2024-02-14T22:11:01.163Z,8.27
2024-02-14T22:14:03.829Z,8.35
2024-02-14T22:17:12.842Z,8.27
2024-02-14T22:20:17.340Z,7.55
2024-02-14T22:23:20.122Z,8.73
2024-02-14T22:26:22.641Z,8.25
2024-02-14T22:29:25.322Z,8.13
2024-02-14T22:32:29.598Z,8.02
2024-02-14T22:35:32.769Z,7.65
2024-02-14T22:38:35.404Z,7.78
2024-02-14T22:41:39.088Z,7.70
2024-02-14T22:44:41.819Z,7.63
2024-02-14T22:47:45.757Z,7.63
2024-02-14T22:50:48.298Z,6.65
2024-02-14T22:53:50.909Z,7.32
2024-02-14T22:56:56.112Z,7.78
2024-02-14T22:59:58.591Z,7.50
2024-02-14T23:03:07.102Z,7.47
2024-02-14T23:06:10.455Z,7.78
2024-02-14T23:09:14.008Z,7.78
2024-02-14T23:12:18.724Z,9.13
2024-02-14T23:15:21.558Z,8.48
2024-02-14T23:18:28.851Z,8.02
2024-02-14T23:21:31.731Z,7.93
2024-02-14T23:24:34.326Z,7.43
2024-02-14T23:27:36.802Z,7.18
2024-02-14T23:30:41.274Z,7.90
2024-02-14T23:33:45.447Z,7.25
2024-02-14T23:36:48.042Z,8.05
2024-02-14T23:39:50.638Z,7.57
2024-02-14T23:42:54.073Z,7.38
2024-02-14T23:45:56.551Z,8.32
2024-02-14T23:49:00.513Z,8.20
2024-02-14T23:52:05.072Z,8.23
2024-02-14T23:55:07.859Z,7.97
2024-02-14T23:58:12.182Z,7.85
